createdAt,value
2022-12-19T00:02:58.680Z,9.57
2022-12-19T00:06:02.477Z,10.65
2022-12-19T00:09:05.697Z,10.20
2022-12-19T00:12:07.944Z,9.55
2022-12-19T00:15:13.649Z,10.45
2022-12-19T00:18:15.947Z,12.05
2022-12-19T00:21:21.374Z,10.73
2022-12-19T00:24:23.689Z,9.98
2022-12-19T00:27:25.917Z,9.93
2022-12-19T00:30:29.617Z,9.77
2022-12-19T00:33:32.985Z,9.85
2022-12-19T00:36:36.781Z,10.23
2022-12-19T00:39:39.025Z,9.90
2022-12-19T00:42:41.670Z,8.60
2022-12-19T00:45:45.609Z,10.10
2022-12-19T00:48:47.844Z,8.48
2022-12-19T00:51:50.176Z,9.60
2022-12-19T00:54:52.553Z,10.98
2022-12-19T00:57:55.232Z,7.57
2022-12-19T01:01:06.998Z,9.63
2022-12-19T01:04:30.685Z,8.23
2022-12-19T01:07:34.797Z,9.45
2022-12-19T01:10:37.288Z,9.05
2022-12-19T01:13:43.613Z,9.13
2022-12-19T01:16:47.775Z,9.10
2022-12-19T01:19:50.274Z,9.52
2022-12-19T01:22:52.868Z,8.85
2022-12-19T01:25:55.889Z,10.90
2022-12-19T01:28:59.475Z,10.85
2022-12-19T01:32:05.768Z,9.85
2022-12-19T01:35:09.840Z,9.35
2022-12-19T01:38:20.433Z,9.65
2022-12-19T01:41:22.766Z,10.27
2022-12-19T01:44:28.666Z,7.55
2022-12-19T01:47:33.690Z,9.93
2022-12-19T01:50:39.183Z,9.50
2022-12-19T01:53:49.286Z,8.65
2022-12-19T01:56:54.914Z,9.52
2022-12-19T01:59:59.260Z,9.90
2022-12-19T02:03:07.790Z,9.13
2022-12-19T02:06:13.774Z,7.33
2022-12-19T02:09:16.172Z,10.27
2022-12-19T02:12:18.757Z,7.40
2022-12-19T02:15:23.848Z,8.57
2022-12-19T02:18:34.787Z,8.50
2022-12-19T02:21:54.641Z,9.35
2022-12-19T02:25:23.820Z,9.95
2022-12-19T02:28:48.843Z,9.40
2022-12-19T02:31:56.559Z,9.70
2022-12-19T02:35:03.314Z,9.38
2022-12-19T02:38:12.239Z,9.10
2022-12-19T02:41:22.308Z,9.15
2022-12-19T02:44:27.550Z,9.32
2022-12-19T02:47:33.030Z,8.50
2022-12-19T02:50:38.652Z,8.40
2022-12-19T02:53:41.261Z,8.65
2022-12-19T02:56:48.618Z,8.02
2022-12-19T03:00:00.521Z,7.72
2022-12-19T03:03:12.045Z,11.15
2022-12-19T03:06:21.108Z,8.63
2022-12-19T03:09:29.429Z,8.63
2022-12-19T03:12:35.187Z,9.23
2022-12-19T03:15:38.519Z,9.23
2022-12-19T03:18:42.945Z,8.57
2022-12-19T03:21:46.562Z,9.93
2022-12-19T03:24:48.900Z,8.85
2022-12-19T03:27:53.097Z,8.25
2022-12-19T03:30:56.338Z,9.95
2022-12-19T03:34:01.523Z,8.70
2022-12-19T03:37:05.731Z,9.05
2022-12-19T03:40:13.140Z,9.65
2022-12-19T03:43:16.471Z,9.40
2022-12-19T03:46:23.159Z,7.82
2022-12-19T03:49:26.952Z,10.02
2022-12-19T03:52:34.455Z,9.80
2022-12-19T03:55:40.232Z,8.93
2022-12-19T03:58:47.248Z,9.18
2022-12-19T04:01:50.404Z,9.48
2022-12-19T04:04:59.398Z,9.13
2022-12-19T04:08:04.892Z,10.40
2022-12-19T04:11:14.082Z,9.73
2022-12-19T04:14:19.945Z,10.10
2022-12-19T04:17:29.332Z,10.35
2022-12-19T04:20:34.230Z,10.25
2022-12-19T04:23:40.255Z,10.13
2022-12-19T04:26:45.259Z,9.48
2022-12-19T04:29:48.641Z,10.18
2022-12-19T04:32:51.369Z,10.60
2022-12-19T04:35:55.099Z,9.38
2022-12-19T04:39:00.047Z,10.65
2022-12-19T04:42:02.574Z,9.98
2022-12-19T04:46:01.952Z,11.15
2022-12-19T05:29:59.963Z,10.60
2022-12-19T05:33:48.775Z,10.07
2022-12-19T05:45:49.739Z,9.93
2022-12-19T05:49:07.202Z,10.98
2022-12-19T05:52:50.015Z,8.70
2022-12-19T05:56:42.841Z,9.45
2022-12-19T05:59:46.563Z,11.82
2022-12-19T06:02:49.089Z,10.32
2022-12-19T06:05:51.394Z,8.70
2022-12-19T06:08:54.134Z,10.85
2022-12-19T06:11:56.446Z,11.73
2022-12-19T06:15:00.325Z,11.05
2022-12-19T06:18:02.595Z,11.05
2022-12-19T06:21:06.692Z,12.77
2022-12-19T06:24:08.973Z,11.00
2022-12-19T06:27:11.323Z,11.93
2022-12-19T06:30:15.431Z,11.38
2022-12-19T06:33:17.807Z,12.10
2022-12-19T06:36:22.483Z,13.63
2022-12-19T06:39:24.886Z,11.18
2022-12-19T06:42:27.340Z,12.38
2022-12-19T06:45:31.259Z,11.45
2022-12-19T06:48:33.589Z,12.65
2022-12-19T06:51:35.999Z,11.88
2022-12-19T06:54:38.506Z,12.70
2022-12-19T06:57:46.029Z,13.35
2022-12-19T07:00:50.081Z,11.57
2022-12-19T07:03:52.538Z,12.77
2022-12-19T07:06:54.949Z,12.30
2022-12-19T07:09:57.359Z,14.00
2022-12-19T07:12:59.626Z,13.10
2022-12-19T07:16:05.137Z,14.45
2022-12-19T07:19:08.818Z,13.38
2022-12-19T07:22:11.993Z,14.02
2022-12-19T07:25:14.586Z,14.77
2022-12-19T07:28:17.041Z,13.18
2022-12-19T07:31:20.753Z,12.50
2022-12-19T07:34:23.263Z,14.93
2022-12-19T07:37:25.704Z,15.43
2022-12-19T07:40:28.125Z,14.43
2022-12-19T07:43:30.738Z,15.05
2022-12-19T07:46:34.531Z,18.55
2022-12-19T07:49:37.078Z,15.15
2022-12-19T07:52:39.358Z,17.95
2022-12-19T07:55:41.684Z,13.93
2022-12-19T07:58:44.703Z,17.30
2022-12-19T08:01:48.508Z,17.17
2022-12-19T08:04:51.040Z,16.77
2022-12-19T08:07:53.254Z,17.77
2022-12-19T08:10:55.572Z,19.35
2022-12-19T08:13:58.231Z,14.30
2022-12-19T08:20:24.233Z,18.42
2022-12-19T08:23:26.755Z,17.63
2022-12-19T08:26:33.998Z,17.52
2022-12-19T08:29:40.083Z,18.60
2022-12-19T08:32:45.092Z,15.52
2022-12-19T08:35:47.550Z,19.65
2022-12-19T08:38:50.920Z,20.02
2022-12-19T08:41:53.207Z,19.95
2022-12-19T08:44:55.585Z,21.73
2022-12-19T08:48:02.433Z,20.02
2022-12-19T08:51:05.938Z,21.30
2022-12-19T08:54:11.855Z,20.00
2022-12-19T08:57:15.325Z,20.58
2022-12-19T09:00:18.237Z,21.88
2022-12-19T09:03:24.827Z,20.92
2022-12-19T09:06:30.390Z,21.20
2022-12-19T09:09:32.768Z,19.38
2022-12-19T09:12:35.125Z,22.00
2022-12-19T09:15:37.404Z,24.48
2022-12-19T09:18:48.076Z,23.85
2022-12-19T09:21:51.019Z,19.02
2022-12-19T09:24:54.234Z,21.65
2022-12-19T09:28:26.269Z,24.40
2022-12-19T09:31:20.887Z,22.20
2022-12-19T09:34:33.226Z,23.50
2022-12-19T09:37:41.239Z,22.35
2022-12-19T09:40:53.332Z,20.63
2022-12-19T09:44:03.261Z,22.70
2022-12-19T09:47:11.997Z,19.48
2022-12-19T09:50:26.431Z,21.08
2022-12-19T09:53:32.617Z,23.27
2022-12-19T09:56:45.540Z,22.40
2022-12-19T09:59:51.607Z,23.65
2022-12-19T10:02:58.122Z,22.45
2022-12-19T10:07:10.958Z,22.33
2022-12-19T10:11:42.867Z,21.83
2022-12-19T10:13:12.917Z,22.48
2022-12-19T10:16:21.600Z,18.42
2022-12-19T10:19:32.512Z,21.45
2022-12-19T10:22:42.282Z,22.13
2022-12-19T10:25:54.130Z,21.38
2022-12-19T10:32:13.623Z,21.20
2022-12-19T10:35:18.019Z,23.95
2022-12-19T10:38:27.536Z,20.17
2022-12-19T10:41:31.601Z,22.70
2022-12-19T10:44:38.936Z,22.98
2022-12-19T10:47:42.426Z,21.85
2022-12-19T10:50:44.989Z,23.20
2022-12-19T10:53:53.263Z,22.48
2022-12-19T10:56:55.867Z,27.63
2022-12-19T10:59:59.069Z,24.13
2022-12-19T11:03:11.004Z,19.63
2022-12-19T11:06:42.388Z,21.58
2022-12-19T11:09:51.334Z,21.60
2022-12-19T11:19:37.832Z,21.83
2022-12-19T11:22:05.238Z,24.42
2022-12-19T11:29:19.609Z,22.73
2022-12-19T11:30:40.969Z,21.27
2022-12-19T11:30:43.751Z,22.20
2022-12-19T11:37:36.163Z,21.25
2022-12-19T11:40:48.447Z,18.48
2022-12-19T11:43:58.804Z,25.95
2022-12-19T11:47:09.011Z,25.38
2022-12-19T11:50:15.560Z,26.25
2022-12-19T11:53:20.857Z,25.05
2022-12-19T11:56:24.864Z,21.70
2022-12-19T11:59:31.814Z,25.55
2022-12-19T12:03:00.422Z,25.25
2022-12-19T12:06:09.691Z,21.35
2022-12-19T12:14:48.309Z,24.35
2022-12-19T12:22:29.155Z,23.70
2022-12-19T12:26:12.490Z,26.00
2022-12-19T12:31:29.889Z,26.00
2022-12-19T12:31:51.385Z,25.30
2022-12-19T12:31:51.876Z,23.55
2022-12-19T12:35:22.544Z,23.27
2022-12-19T12:35:43.567Z,23.40
2022-12-19T12:40:54.459Z,21.42
2022-12-19T12:44:06.729Z,25.75
2022-12-19T12:47:15.307Z,23.67
2022-12-19T12:50:21.402Z,24.17
2022-12-19T12:53:27.047Z,25.88
2022-12-19T12:56:29.445Z,25.05
2022-12-19T12:59:31.920Z,23.40
2022-12-19T13:02:34.355Z,24.13
2022-12-19T13:05:54.231Z,24.27
2022-12-19T13:09:03.663Z,24.65
2022-12-19T13:12:34.943Z,27.58
2022-12-19T13:15:42.620Z,24.83
2022-12-19T13:19:04.147Z,24.63
2022-12-19T13:22:19.951Z,25.65
2022-12-19T13:25:48.545Z,25.60
2022-12-19T13:28:50.937Z,24.00
2022-12-19T13:32:08.025Z,22.20
2022-12-19T13:38:59.078Z,24.10
2022-12-19T13:39:59.855Z,22.77
2022-12-19T13:42:41.529Z,22.88
2022-12-19T13:45:49.480Z,27.00
2022-12-19T13:48:54.174Z,25.65
2022-12-19T13:51:57.947Z,22.52
2022-12-19T13:55:01.609Z,24.45
2022-12-19T13:58:04.642Z,26.63
2022-12-19T14:01:15.016Z,24.10
2022-12-19T14:04:28.726Z,25.83
2022-12-19T14:07:37.073Z,24.42
2022-12-19T14:11:38.913Z,23.70
2022-12-19T14:14:28.200Z,23.50
2022-12-19T14:17:30.968Z,24.65
2022-12-19T14:22:05.619Z,20.45
2022-12-19T14:24:08.948Z,22.52
2022-12-19T14:28:20.447Z,23.65
2022-12-19T14:30:40.950Z,25.35
2022-12-19T14:34:04.114Z,22.00
2022-12-19T14:37:54.289Z,23.70
2022-12-19T14:41:07.959Z,21.58
2022-12-19T14:52:25.447Z,20.67
2022-12-19T14:54:09.276Z,23.92
2022-12-19T14:54:14.695Z,22.10
2022-12-19T14:58:53.054Z,20.38
2022-12-19T15:01:23.591Z,20.35
2022-12-19T15:04:50.395Z,18.40
2022-12-19T15:07:55.132Z,20.58
2022-12-19T15:11:40.054Z,18.90
2022-12-19T15:14:52.740Z,19.98
2022-12-19T15:18:04.005Z,18.48
2022-12-19T15:21:08.179Z,17.35
2022-12-19T15:24:11.172Z,16.85
2022-12-19T15:27:16.439Z,18.83
2022-12-19T15:30:21.166Z,17.83
2022-12-19T15:33:25.675Z,18.30
2022-12-19T15:36:29.020Z,17.13
2022-12-19T15:39:31.320Z,17.25
2022-12-19T15:42:34.698Z,17.33
2022-12-19T15:45:37.005Z,17.83
2022-12-19T15:48:43.233Z,18.58
2022-12-19T15:51:46.114Z,17.42
2022-12-19T15:54:50.327Z,16.77
2022-12-19T15:57:55.931Z,18.73
2022-12-19T16:01:00.371Z,14.27
2022-12-19T16:04:13.179Z,17.92
2022-12-19T16:07:17.311Z,16.38
2022-12-19T16:10:19.656Z,17.60
2022-12-19T16:13:24.433Z,18.80
2022-12-19T16:16:26.798Z,17.45
2022-12-19T16:19:31.242Z,18.65
2022-12-19T16:22:33.715Z,16.10
2022-12-19T16:25:40.239Z,17.40
2022-12-19T16:28:43.282Z,15.70
2022-12-19T16:31:45.715Z,17.10
2022-12-19T16:34:49.732Z,17.77
2022-12-19T16:37:52.012Z,18.13
2022-12-19T16:40:54.341Z,16.48
2022-12-19T16:43:56.623Z,20.30
2022-12-19T16:46:59.279Z,16.95
2022-12-19T16:50:10.725Z,17.98
2022-12-19T16:53:13.203Z,18.20
2022-12-19T16:56:21.845Z,17.27
2022-12-19T16:59:27.437Z,16.45
2022-12-19T17:02:43.612Z,17.27
2022-12-19T17:05:47.403Z,18.45
2022-12-19T17:08:49.797Z,15.70
2022-12-19T17:11:53.804Z,18.08
2022-12-19T17:14:56.080Z,17.10
2022-12-19T17:17:59.937Z,17.75
2022-12-19T17:21:03.702Z,19.05
2022-12-19T17:24:11.220Z,16.27
2022-12-19T17:27:13.767Z,16.50
2022-12-19T17:30:16.932Z,16.45
2022-12-19T17:33:20.749Z,15.98
2022-12-19T17:36:31.215Z,17.98
2022-12-19T17:39:38.127Z,17.70
2022-12-19T17:42:40.429Z,16.88
2022-12-19T17:45:43.229Z,13.70
2022-12-19T17:48:46.485Z,17.45
2022-12-19T17:51:52.424Z,17.50
2022-12-19T17:54:55.064Z,14.82
2022-12-19T17:57:58.077Z,20.13
2022-12-19T18:01:00.417Z,18.52
2022-12-19T18:04:02.957Z,17.17
2022-12-19T18:07:10.362Z,17.85
2022-12-19T18:10:17.225Z,17.70
2022-12-19T18:13:20.480Z,18.25
2022-12-19T18:16:26.044Z,17.27
2022-12-19T18:19:31.143Z,17.17
2022-12-19T18:22:35.049Z,19.20
2022-12-19T18:25:37.407Z,16.15
2022-12-19T18:28:40.488Z,17.23
2022-12-19T18:31:50.018Z,18.25
2022-12-19T18:34:53.806Z,17.92
2022-12-19T18:37:59.769Z,16.67
2022-12-19T18:41:02.136Z,17.55
2022-12-19T18:44:05.390Z,15.60
2022-12-19T18:47:17.025Z,17.63
2022-12-19T18:50:21.254Z,16.08
2022-12-19T18:53:34.602Z,16.65
2022-12-19T18:56:38.187Z,18.25
2022-12-19T18:59:40.843Z,16.60
2022-12-19T19:02:46.885Z,14.75
2022-12-19T19:05:49.845Z,15.00
2022-12-19T19:08:56.459Z,14.15
2022-12-19T19:12:18.688Z,14.15
2022-12-19T19:15:22.621Z,12.32
2022-12-19T19:18:27.318Z,14.55
2022-12-19T19:21:33.077Z,13.45
2022-12-19T19:24:36.718Z,11.77
2022-12-19T19:27:39.938Z,10.63
2022-12-19T19:30:42.732Z,9.40
2022-12-19T19:33:48.105Z,10.30
2022-12-19T19:36:53.556Z,8.27
2022-12-19T19:39:57.226Z,8.50
2022-12-19T19:42:59.617Z,8.48
2022-12-19T19:46:02.322Z,8.75
2022-12-19T19:49:04.628Z,8.77
2022-12-19T19:52:07.020Z,8.15
2022-12-19T19:55:11.036Z,7.45
2022-12-19T19:58:13.341Z,7.53
2022-12-19T20:01:15.838Z,8.57
2022-12-19T20:04:18.138Z,8.05
2022-12-19T20:07:20.574Z,8.63
2022-12-19T20:10:24.308Z,8.82
2022-12-19T20:13:29.073Z,9.32
2022-12-19T20:16:31.616Z,9.35
2022-12-19T20:19:34.121Z,7.95
2022-12-19T20:22:36.606Z,9.07
2022-12-19T20:25:42.139Z,8.10
2022-12-19T20:28:48.991Z,7.35
2022-12-19T20:31:52.093Z,8.00
2022-12-19T20:34:54.361Z,7.93
2022-12-19T20:37:56.651Z,8.40
2022-12-19T20:41:00.342Z,7.80
2022-12-19T20:44:02.684Z,7.40
2022-12-19T20:47:05.105Z,6.93
2022-12-19T20:50:08.419Z,6.45
2022-12-19T20:53:10.812Z,5.43
2022-12-19T20:56:16.448Z,5.97
2022-12-19T20:59:19.314Z,6.40
2022-12-19T21:02:21.813Z,4.93
2022-12-19T21:05:24.347Z,5.20
2022-12-19T21:08:27.205Z,5.20
2022-12-19T21:11:30.834Z,4.65
2022-12-19T21:14:33.145Z,4.70
2022-12-19T21:17:35.430Z,5.13
2022-12-19T21:20:39.188Z,5.28
2022-12-19T21:23:41.984Z,5.75
2022-12-19T21:26:47.462Z,5.35
2022-12-19T21:29:49.645Z,4.03
2022-12-19T21:32:51.937Z,4.63
2022-12-19T21:35:57.013Z,4.75
2022-12-19T21:39:01.724Z,4.78
2022-12-19T21:42:05.461Z,3.97
2022-12-19T21:45:09.138Z,5.18
2022-12-19T21:48:16.968Z,4.28
2022-12-19T21:51:21.458Z,4.93
2022-12-19T21:54:23.856Z,4.70
2022-12-19T21:57:27.502Z,4.28
2022-12-19T22:00:29.905Z,4.32
2022-12-19T22:03:32.433Z,3.33
2022-12-19T22:06:36.974Z,3.53
2022-12-19T22:09:39.342Z,3.10
2022-12-19T22:12:43.045Z,3.92
2022-12-19T22:15:45.640Z,7.97
2022-12-19T22:18:48.152Z,3.83
2022-12-19T22:21:50.440Z,3.22
2022-12-19T22:24:52.662Z,3.47
2022-12-19T22:27:56.623Z,3.33
2022-12-19T22:30:58.999Z,3.20
2022-12-19T22:34:03.133Z,3.20
2022-12-19T22:37:05.400Z,2.92
2022-12-19T22:40:08.757Z,3.05
2022-12-19T22:43:12.398Z,3.97
2022-12-19T22:46:16.594Z,3.00
2022-12-19T22:49:18.869Z,3.22
2022-12-19T22:52:21.223Z,3.10
2022-12-19T22:55:23.634Z,3.15
2022-12-19T22:58:29.319Z,3.10
2022-12-19T23:01:33.989Z,3.00
2022-12-19T23:04:36.492Z,3.80
2022-12-19T23:07:38.799Z,2.90
2022-12-19T23:10:41.093Z,3.72
2022-12-19T23:13:47.131Z,2.97
2022-12-19T23:16:49.696Z,3.00
2022-12-19T23:19:52.102Z,2.78
2022-12-19T23:22:54.348Z,3.10
2022-12-19T23:25:56.630Z,2.92
2022-12-19T23:29:01.559Z,3.40
2022-12-19T23:32:03.982Z,2.35
2022-12-19T23:35:08.327Z,2.67
2022-12-19T23:38:10.895Z,3.38
2022-12-19T23:41:15.617Z,3.42
2022-12-19T23:44:19.628Z,2.38
2022-12-19T23:47:21.916Z,2.22
2022-12-19T23:50:24.152Z,2.40
2022-12-19T23:53:26.370Z,2.25
2022-12-19T23:56:29.986Z,2.15
2022-12-19T23:59:33.888Z,2.88
